Time;durP1;ratioP1;P1;durP2;ratioP2;P2;SDS_P1;SDS_P2;PMS_P1;PMS_P2;Temp;Humidity;BMP_temperature;BMP_pressure;BME280_temperature;BME280_humidity;BME280_pressure;Samples;Min_cycle;Max_cycle;Signal;HPM_P1;HPM_P2
2023/06/25 00:00:22;;;;;;;;;;;17.90;99.90;;;;;;5064350;28;20260;-72
2023/06/25 00:02:49;;;;;;;;;;;17.80;99.90;;;;;;5064644;28;19928;-73
2023/06/25 00:05:17;;;;;;;;;;;17.80;99.90;;;;;;5064909;28;19948;-72
2023/06/25 00:07:44;;;;;;;;;;;17.70;99.90;;;;;;5065404;28;19988;-74
2023/06/25 00:10:10;;;;;;;;;;;17.70;99.90;;;;;;5064838;28;20219;-72
2023/06/25 00:12:37;;;;;;;;;;;17.60;99.90;;;;;;5050389;28;19927;-73
2023/06/25 00:15:05;;;;;;;;;;;17.60;99.90;;;;;;5045139;28;20264;-73
2023/06/25 00:17:31;;;;;;;;;;;17.50;99.90;;;;;;5044863;28;19921;-72
2023/06/25 00:19:59;;;;;;;;;;;17.50;99.90;;;;;;5044828;28;19921;-73
2023/06/25 00:22:27;;;;;;;;;;;17.40;99.90;;;;;;5044504;28;19921;-73
2023/06/25 00:24:53;;;;;;;;;;;17.40;99.90;;;;;;5044937;28;19995;-73
2023/06/25 00:27:20;;;;;;;;;;;17.30;99.90;;;;;;5044943;28;19921;-72
2023/06/25 00:30:08;;;;;;;;;;;17.40;99.90;;;;;;5044437;28;20179;-72
2023/06/25 00:32:35;;;;;;;;;;;17.30;99.90;;;;;;5044381;28;20036;-72
2023/06/25 00:35:02;;;;;;;;;;;17.30;99.90;;;;;;5044672;28;19928;-72
2023/06/25 00:37:36;;;;;;;;;;;17.30;99.90;;;;;;5044492;28;19963;-72
2023/06/25 00:40:03;;;;;;;;;;;17.20;99.90;;;;;;5044739;28;19921;-71
2023/06/25 00:42:40;;;;;;;;;;;17.10;99.90;;;;;;5059994;28;20149;-72
2023/06/25 00:45:09;;;;;;;;;;;17.10;99.90;;;;;;5064522;28;19933;-72
2023/06/25 00:53:49;;;;;;;;;;;16.90;99.90;;;;;;5063823;28;19916;-72
2023/06/25 00:56:17;;;;;;;;;;;16.80;99.90;;;;;;5063939;28;19940;-73
2023/06/25 00:58:44;;;;;;;;;;;16.80;99.90;;;;;;5063815;28;19920;-72
2023/06/25 01:01:15;;;;;;;;;;;16.80;99.90;;;;;;5063939;28;19927;-72
2023/06/25 01:04:09;;;;;;;;;;;16.70;99.90;;;;;;5063909;28;19921;-72
2023/06/25 01:06:40;;;;;;;;;;;16.70;99.90;;;;;;5064097;28;20135;-73
2023/06/25 01:09:09;;;;;;;;;;;16.70;99.90;;;;;;5064151;28;20116;-72
2023/06/25 01:11:37;;;;;;;;;;;16.70;99.90;;;;;;5059222;28;20127;-72
2023/06/25 01:14:04;;;;;;;;;;;16.60;99.90;;;;;;5043182;28;19921;-72
2023/06/25 01:16:31;;;;;;;;;;;16.60;99.90;;;;;;5044053;28;19921;-72
2023/06/25 01:19:02;;;;;;;;;;;16.60;99.90;;;;;;5043874;28;20181;-72
2023/06/25 01:21:30;;;;;;;;;;;16.60;99.90;;;;;;5054653;28;19973;-73
2023/06/25 01:23:58;;;;;;;;;;;16.50;99.90;;;;;;5063496;28;19920;-72
2023/06/25 01:26:25;;;;;;;;;;;16.50;99.90;;;;;;5063655;28;20107;-72
2023/06/25 01:28:55;;;;;;;;;;;16.40;99.90;;;;;;5063738;28;19921;-72
2023/06/25 01:31:22;;;;;;;;;;;16.30;99.90;;;;;;5063369;28;19921;-72
2023/06/25 01:33:50;;;;;;;;;;;16.20;99.90;;;;;;5063061;28;20387;-72
2023/06/25 01:36:17;;;;;;;;;;;16.20;99.90;;;;;;5063258;28;19984;-72
2023/06/25 01:38:43;;;;;;;;;;;16.10;99.90;;;;;;5063804;28;19941;-72
2023/06/25 01:41:32;;;;;;;;;;;16.10;99.90;;;;;;5063531;28;19956;-72
2023/06/25 01:44:09;;;;;;;;;;;16.10;99.90;;;;;;5063601;28;19921;-72
2023/06/25 01:52:41;;;;;;;;;;;16.00;99.90;;;;;;5063460;28;19947;-72
2023/06/25 01:55:21;;;;;;;;;;;15.90;99.90;;;;;;5062958;28;19987;-73
2023/06/25 01:57:48;;;;;;;;;;;15.90;99.90;;;;;;5063627;28;19964;-72
2023/06/25 02:00:18;;;;;;;;;;;15.80;99.90;;;;;;5062390;28;19952;-72
2023/06/25 02:02:46;;;;;;;;;;;15.80;99.90;;;;;;5063082;28;19920;-72
2023/06/25 02:05:12;;;;;;;;;;;15.80;99.90;;;;;;5063476;28;19921;-72
2023/06/25 02:07:39;;;;;;;;;;;15.80;99.90;;;;;;5063453;28;19920;-72
2023/06/25 02:10:06;;;;;;;;;;;15.80;99.90;;;;;;5063346;28;20148;-73
2023/06/25 02:12:33;;;;;;;;;;;15.70;99.90;;;;;;5061246;28;19950;-72
2023/06/25 02:15:00;;;;;;;;;;;15.70;99.90;;;;;;5062924;28;19959;-72
2023/06/25 02:17:26;;;;;;;;;;;15.70;99.90;;;;;;5063245;28;19959;-72
2023/06/25 02:19:54;;;;;;;;;;;15.60;99.90;;;;;;5063068;28;19921;-72
2023/06/25 02:22:21;;;;;;;;;;;15.60;99.90;;;;;;5063126;28;19921;-73
2023/06/25 02:24:47;;;;;;;;;;;15.60;99.90;;;;;;5064750;28;19967;-73
2023/06/25 02:27:14;;;;;;;;;;;15.50;99.90;;;;;;5067254;28;19943;-72
2023/06/25 02:29:41;;;;;;;;;;;15.50;99.90;;;;;;5066948;28;19994;-73
2023/06/25 02:32:08;;;;;;;;;;;15.40;99.90;;;;;;5066694;28;20247;-72
2023/06/25 03:05:35;;;;;;;;;;;14.90;99.90;;;;;;5066246;28;19959;-71
2023/06/25 03:20:14;;;;;;;;;;;14.80;99.90;;;;;;5045976;28;19947;-76
2023/06/25 03:22:42;;;;;;;;;;;14.70;99.90;;;;;;5046264;28;19921;-74
2023/06/25 03:25:09;;;;;;;;;;;14.60;99.90;;;;;;5046067;28;19932;-74
2023/06/25 03:27:36;;;;;;;;;;;14.60;99.90;;;;;;5045974;28;19988;-74
2023/06/25 03:30:03;;;;;;;;;;;14.60;99.90;;;;;;5046089;28;19922;-74
2023/06/25 03:32:30;;;;;;;;;;;14.60;99.90;;;;;;5045651;28;19944;-73
2023/06/25 03:34:56;;;;;;;;;;;14.60;99.90;;;;;;5057873;28;19952;-74
2023/06/25 03:37:23;;;;;;;;;;;14.50;99.90;;;;;;5065277;28;19921;-74
2023/06/25 03:39:51;;;;;;;;;;;14.50;99.90;;;;;;5065521;28;19992;-74
2023/06/25 03:54:29;;;;;;;;;;;14.30;99.90;;;;;;5045488;28;19916;-73
2023/06/25 03:56:57;;;;;;;;;;;14.30;99.90;;;;;;5045105;28;20201;-74
2023/06/25 03:59:24;;;;;;;;;;;14.30;99.90;;;;;;5056489;28;19983;-74
2023/06/25 04:02:12;;;;;;;;;;;14.40;99.90;;;;;;5065028;28;20090;-73
2023/06/25 04:04:39;;;;;;;;;;;14.30;99.90;;;;;;5044629;28;20292;-75
2023/06/25 04:07:06;;;;;;;;;;;14.40;99.90;;;;;;5049833;28;19943;-74
2023/06/25 04:09:33;;;;;;;;;;;14.40;99.90;;;;;;5064803;28;19992;-74
2023/06/25 04:18:07;;;;;;;;;;;14.30;99.90;;;;;;5065098;28;20036;-73
2023/06/25 04:20:34;;;;;;;;;;;14.30;99.90;;;;;;5064447;28;20094;-74
2023/06/25 04:23:06;;;;;;;;;;;14.30;99.90;;;;;;5061630;28;19992;-74
2023/06/25 04:25:33;;;;;;;;;;;14.30;99.90;;;;;;5064489;28;19931;-74
2023/06/25 04:27:59;;;;;;;;;;;14.40;99.90;;;;;;5064618;28;19959;-74
2023/06/25 04:30:26;;;;;;;;;;;14.50;99.90;;;;;;5063924;28;20199;-75
2023/06/25 04:32:54;;;;;;;;;;;14.50;99.90;;;;;;5064879;28;19992;-74
2023/06/25 04:35:22;;;;;;;;;;;14.60;99.90;;;;;;5064112;28;19927;-74
2023/06/25 04:41:10;;;;;;;;;;;14.80;99.90;;;;;;5063951;28;19916;-74
2023/06/25 04:43:38;;;;;;;;;;;15.00;99.90;;;;;;5064701;28;20175;-73
2023/06/25 04:46:07;;;;;;;;;;;15.00;99.90;;;;;;5064384;28;19927;-74
2023/06/25 04:48:34;;;;;;;;;;;15.10;99.90;;;;;;5063387;28;20220;-73
2023/06/25 04:51:03;;;;;;;;;;;15.20;99.90;;;;;;5063941;28;19988;-74
2023/06/25 04:53:32;;;;;;;;;;;15.30;99.90;;;;;;5064519;28;20089;-74
2023/06/25 04:55:58;;;;;;;;;;;15.40;99.90;;;;;;5064335;28;19943;-74
2023/06/25 04:58:27;;;;;;;;;;;15.50;99.90;;;;;;5062745;28;19931;-73
2023/06/25 05:00:54;;;;;;;;;;;15.50;99.90;;;;;;5063486;28;19921;-74
2023/06/25 05:06:25;;;;;;;;;;;15.70;99.90;;;;;;5063639;28;19950;-73
2023/06/25 05:08:51;;;;;;;;;;;15.70;99.90;;;;;;5061309;28;19920;-73
2023/06/25 05:17:24;;;;;;;;;;;16.00;99.90;;;;;;5063524;28;19958;-74
2023/06/25 05:19:51;;;;;;;;;;;16.10;99.90;;;;;;5063252;28;19987;-73
2023/06/25 05:22:20;;;;;;;;;;;16.20;99.90;;;;;;5060510;28;20342;-74
2023/06/25 05:24:47;;;;;;;;;;;16.30;99.90;;;;;;5063664;28;19921;-74
2023/06/25 05:27:17;;;;;;;;;;;16.40;99.90;;;;;;5063312;28;20204;-74
2023/06/25 05:29:43;;;;;;;;;;;16.50;99.90;;;;;;5063509;28;19921;-74
2023/06/25 05:41:28;;;;;;;;;;;17.10;99.90;;;;;;5001223;28;19988;-74
2023/06/25 05:43:54;;;;;;;;;;;17.20;99.90;;;;;;5044969;28;19920;-74
2023/06/25 05:46:21;;;;;;;;;;;17.30;99.90;;;;;;5062891;28;20259;-72
2023/06/25 05:48:48;;;;;;;;;;;17.50;99.90;;;;;;5063326;28;19921;-73
2023/06/25 05:51:15;;;;;;;;;;;17.60;99.90;;;;;;5062546;28;20196;-74
2023/06/25 05:53:42;;;;;;;;;;;17.80;99.90;;;;;;5062778;28;20000;-70
2023/06/25 05:56:08;;;;;;;;;;;17.90;99.90;;;;;;5063004;28;19991;-70
2023/06/25 05:58:37;;;;;;;;;;;18.10;99.90;;;;;;5063271;28;19921;-70
2023/06/25 06:01:04;;;;;;;;;;;18.30;99.90;;;;;;5066477;28;19927;-69
2023/06/25 06:03:30;;;;;;;;;;;18.50;99.90;;;;;;5066827;28;19980;-74
2023/06/25 06:05:57;;;;;;;;;;;18.60;99.90;;;;;;5067021;28;19987;-70
2023/06/25 06:08:24;;;;;;;;;;;18.70;99.90;;;;;;5066879;28;20277;-70
2023/06/25 06:10:52;;;;;;;;;;;18.80;99.90;;;;;;5064042;28;19927;-70
2023/06/25 06:13:18;;;;;;;;;;;18.90;99.90;;;;;;5066685;28;19952;-70
2023/06/25 06:15:46;;;;;;;;;;;19.00;99.90;;;;;;5066985;28;19983;-70
2023/06/25 06:18:13;;;;;;;;;;;19.00;99.90;;;;;;5067115;28;19921;-70
2023/06/25 06:20:40;;;;;;;;;;;19.10;99.90;;;;;;5066350;28;19920;-70
2023/06/25 06:23:06;;;;;;;;;;;19.20;99.90;;;;;;5066881;28;19983;-70
2023/06/25 06:25:33;;;;;;;;;;;19.30;99.90;;;;;;5066231;28;19996;-70
2023/06/25 06:27:59;;;;;;;;;;;19.40;99.90;;;;;;5066441;28;20235;-70
2023/06/25 06:30:26;;;;;;;;;;;19.40;99.90;;;;;;5065771;28;19963;-71
2023/06/25 06:32:54;;;;;;;;;;;19.60;99.90;;;;;;5066444;28;19980;-71
2023/06/25 06:35:21;;;;;;;;;;;19.70;99.90;;;;;;5054098;28;19984;-71
2023/06/25 06:37:47;;;;;;;;;;;19.80;99.90;;;;;;5061799;28;20184;-70
2023/06/25 06:40:14;;;;;;;;;;;19.80;99.90;;;;;;5065939;28;19921;-70
2023/06/25 06:42:40;;;;;;;;;;;19.90;99.90;;;;;;5066310;28;19921;-69
2023/06/25 06:45:07;;;;;;;;;;;20.00;99.90;;;;;;5066209;28;20149;-69
2023/06/25 06:47:34;;;;;;;;;;;20.10;99.90;;;;;;5065950;28;19927;-70
2023/06/25 06:50:02;;;;;;;;;;;20.20;99.90;;;;;;5066250;28;19921;-69
2023/06/25 06:52:29;;;;;;;;;;;20.30;99.90;;;;;;5065522;28;19974;-70
2023/06/25 06:54:55;;;;;;;;;;;20.40;99.90;;;;;;5065662;28;19995;-70
2023/06/25 06:57:22;;;;;;;;;;;20.50;99.90;;;;;;5066228;28;19921;-71
2023/06/25 06:59:48;;;;;;;;;;;20.60;99.90;;;;;;5066015;28;19920;-70
2023/06/25 07:02:15;;;;;;;;;;;20.70;99.90;;;;;;5065481;28;19984;-71
2023/06/25 07:04:42;;;;;;;;;;;20.70;99.90;;;;;;5065684;28;19959;-70
2023/06/25 07:07:10;;;;;;;;;;;20.90;99.90;;;;;;5065878;28;19921;-71
2023/06/25 07:09:36;;;;;;;;;;;21.00;99.90;;;;;;5063011;28;20212;-70
2023/06/25 07:12:03;;;;;;;;;;;21.00;99.90;;;;;;5064187;28;19921;-70
2023/06/25 07:14:30;;;;;;;;;;;21.00;99.90;;;;;;5065642;28;19971;-70
2023/06/25 07:16:57;;;;;;;;;;;21.10;99.90;;;;;;5051668;28;19927;-70
2023/06/25 07:19:23;;;;;;;;;;;21.10;99.90;;;;;;5045950;28;19921;-71
2023/06/25 07:21:50;;;;;;;;;;;21.20;99.90;;;;;;5044900;28;19992;-70
2023/06/25 07:24:18;;;;;;;;;;;21.30;99.90;;;;;;5045820;28;19921;-71
2023/06/25 07:26:44;;;;;;;;;;;21.30;99.90;;;;;;5049367;28;19988;-71
2023/06/25 07:29:11;;;;;;;;;;;21.50;99.90;;;;;;5065796;28;19921;-71
2023/06/25 07:31:39;;;;;;;;;;;21.60;99.90;;;;;;5061472;28;19920;-71
2023/06/25 07:34:05;;;;;;;;;;;21.70;99.90;;;;;;5065495;28;19943;-72
2023/06/25 07:36:32;;;;;;;;;;;21.70;99.90;;;;;;5065205;28;19988;-70
2023/06/25 07:38:58;;;;;;;;;;;21.90;99.90;;;;;;5065565;28;19959;-70
2023/06/25 07:41:26;;;;;;;;;;;22.10;99.90;;;;;;5064446;28;20201;-71
2023/06/25 07:43:55;;;;;;;;;;;22.20;99.90;;;;;;5057983;28;19921;-70
2023/06/25 07:46:21;;;;;;;;;;;22.30;99.90;;;;;;5062951;28;19928;-72
2023/06/25 07:48:48;;;;;;;;;;;22.40;99.90;;;;;;5064509;28;19984;-71
2023/06/25 07:51:14;;;;;;;;;;;22.50;99.90;;;;;;5064563;28;20153;-72
2023/06/25 07:53:41;;;;;;;;;;;22.60;99.90;;;;;;5064977;28;20157;-72
2023/06/25 07:56:08;;;;;;;;;;;22.70;99.90;;;;;;5064555;28;19979;-71
2023/06/25 07:58:36;;;;;;;;;;;22.80;99.90;;;;;;5065166;28;19921;-71
2023/06/25 08:01:04;;;;;;;;;;;22.90;99.90;;;;;;5061703;28;19988;-70
2023/06/25 08:03:31;;;;;;;;;;;23.00;99.90;;;;;;5064575;28;20214;-70
2023/06/25 08:05:57;;;;;;;;;;;23.10;99.90;;;;;;5064734;28;19999;-71
2023/06/25 08:08:24;;;;;;;;;;;23.10;99.90;;;;;;5064763;28;20176;-71
2023/06/25 08:10:51;;;;;;;;;;;23.00;99.90;;;;;;5064258;28;19988;-71
2023/06/25 08:13:18;;;;;;;;;;;23.20;99.90;;;;;;5064604;28;20207;-71
2023/06/25 08:15:46;;;;;;;;;;;23.20;99.90;;;;;;5064673;28;20101;-71
2023/06/25 08:18:13;;;;;;;;;;;23.30;99.90;;;;;;5064772;28;19920;-71
2023/06/25 08:20:40;;;;;;;;;;;23.40;99.90;;;;;;5064164;28;19943;-71
2023/06/25 08:23:06;;;;;;;;;;;23.40;99.90;;;;;;5063377;28;19921;-71
2023/06/25 08:25:33;;;;;;;;;;;23.40;99.90;;;;;;5064517;28;19924;-71
2023/06/25 08:28:00;;;;;;;;;;;23.40;99.90;;;;;;5064547;28;19920;-71
2023/06/25 08:30:26;;;;;;;;;;;23.60;99.90;;;;;;5063607;28;20271;-72
2023/06/25 08:32:54;;;;;;;;;;;23.60;99.90;;;;;;5064294;28;19952;-72
2023/06/25 08:35:21;;;;;;;;;;;23.70;99.90;;;;;;5064056;28;19988;-71
2023/06/25 08:37:54;;;;;;;;;;;23.80;99.90;;;;;;5061869;28;19992;-71
2023/06/25 08:40:22;;;;;;;;;;;23.90;99.90;;;;;;5063886;28;19959;-71
2023/06/25 08:42:49;;;;;;;;;;;24.00;99.90;;;;;;5063768;28;19943;-71
2023/06/25 08:45:16;;;;;;;;;;;24.00;99.90;;;;;;5063592;28;19988;-72
2023/06/25 08:47:43;;;;;;;;;;;24.00;99.90;;;;;;5055917;28;19921;-71
2023/06/25 08:50:11;;;;;;;;;;;24.00;99.90;;;;;;5062914;28;19981;-72
2023/06/25 08:52:38;;;;;;;;;;;24.00;99.90;;;;;;5056419;28;19952;-72
2023/06/25 08:55:08;;;;;;;;;;;24.10;99.90;;;;;;5062718;28;19921;-72
2023/06/25 08:57:35;;;;;;;;;;;24.10;99.90;;;;;;5062553;28;19927;-72
2023/06/25 09:00:01;;;;;;;;;;;24.20;99.90;;;;;;5063473;28;20232;-72
2023/06/25 09:02:30;;;;;;;;;;;24.30;99.90;;;;;;5059589;28;19967;-72
2023/06/25 09:05:02;;;;;;;;;;;24.40;99.90;;;;;;5063396;28;19984;-73
2023/06/25 09:07:33;;;;;;;;;;;24.50;99.90;;;;;;5063683;28;20231;-71
2023/06/25 09:09:59;;;;;;;;;;;24.60;99.90;;;;;;5063961;28;19992;-72
2023/06/25 09:12:26;;;;;;;;;;;24.60;99.90;;;;;;5063268;28;19936;-72
2023/06/25 09:14:56;;;;;;;;;;;24.50;99.90;;;;;;5062819;28;19956;-72
2023/06/25 09:17:23;;;;;;;;;;;24.60;99.90;;;;;;5063689;28;19920;-71
2023/06/25 09:19:51;;;;;;;;;;;24.60;99.90;;;;;;5063618;28;19952;-71
2023/06/25 09:22:17;;;;;;;;;;;24.70;99.90;;;;;;5062920;28;19921;-72
2023/06/25 09:24:47;;;;;;;;;;;24.70;99.90;;;;;;5063580;28;19920;-74
2023/06/25 09:27:14;;;;;;;;;;;24.80;99.90;;;;;;5063298;28;19920;-72
2023/06/25 09:29:42;;;;;;;;;;;24.90;99.90;;;;;;5063505;28;19927;-71
2023/06/25 09:32:10;;;;;;;;;;;24.90;99.90;;;;;;5062447;28;20209;-70
2023/06/25 09:34:40;;;;;;;;;;;24.90;99.90;;;;;;5061957;28;20259;-70
2023/06/25 09:37:08;;;;;;;;;;;25.00;99.90;;;;;;5059723;28;19921;-72
2023/06/25 09:39:37;;;;;;;;;;;25.00;99.90;;;;;;5059720;28;19921;-71
2023/06/25 09:42:06;;;;;;;;;;;25.10;99.90;;;;;;5061724;28;19920;-71
2023/06/25 09:44:34;;;;;;;;;;;25.20;99.90;;;;;;5062436;28;19959;-70
2023/06/25 09:47:04;;;;;;;;;;;25.20;99.90;;;;;;5062837;28;19927;-71
2023/06/25 09:49:31;;;;;;;;;;;25.30;99.90;;;;;;5048781;28;19980;-70
2023/06/25 09:52:00;;;;;;;;;;;25.40;99.90;;;;;;5042597;28;19921;-70
2023/06/25 09:54:27;;;;;;;;;;;25.40;99.90;;;;;;5043255;28;19941;-70
2023/06/25 09:56:55;;;;;;;;;;;25.50;99.90;;;;;;5043167;28;19927;-71
2023/06/25 09:59:23;;;;;;;;;;;25.60;99.90;;;;;;5042925;28;20263;-70
2023/06/25 10:01:50;;;;;;;;;;;25.60;99.90;;;;;;5042154;28;19928;-70
2023/06/25 10:04:16;;;;;;;;;;;25.60;99.90;;;;;;5062800;28;19927;-70
2023/06/25 10:06:43;;;;;;;;;;;25.60;99.90;;;;;;5062774;28;19921;-70
2023/06/25 10:09:09;;;;;;;;;;;25.70;99.90;;;;;;5063179;28;19980;-70
2023/06/25 10:11:36;;;;;;;;;;;25.70;99.90;;;;;;5062189;28;19989;-70
2023/06/25 10:14:04;;;;;;;;;;;25.80;99.90;;;;;;5061485;28;19988;-71
2023/06/25 10:16:33;;;;;;;;;;;25.90;99.90;;;;;;5062718;28;19927;-72
2023/06/25 10:19:00;;;;;;;;;;;26.00;99.90;;;;;;5063042;28;19924;-70
2023/06/25 10:21:27;;;;;;;;;;;26.10;99.90;;;;;;5062041;28;19921;-72
2023/06/25 10:23:55;;;;;;;;;;;26.10;99.90;;;;;;5062945;28;19921;-70
2023/06/25 10:26:25;;;;;;;;;;;26.20;99.90;;;;;;5062765;28;19920;-71
2023/06/25 10:28:52;;;;;;;;;;;26.30;98.90;;;;;;5062991;28;19921;-71
2023/06/25 10:31:19;;;;;;;;;;;26.40;99.90;;;;;;5061944;28;19956;-71
2023/06/25 10:33:47;;;;;;;;;;;26.50;99.90;;;;;;5062830;28;19967;-71
2023/06/25 10:36:13;;;;;;;;;;;26.50;99.90;;;;;;5062567;28;19924;-70
2023/06/25 10:38:41;;;;;;;;;;;26.60;99.90;;;;;;5060193;28;20173;-71
2023/06/25 10:41:08;;;;;;;;;;;26.70;99.90;;;;;;5061908;28;20171;-71
2023/06/25 10:43:36;;;;;;;;;;;26.80;99.90;;;;;;5062288;28;20169;-71
2023/06/25 10:46:03;;;;;;;;;;;26.90;99.60;;;;;;5064271;28;19920;-71
2023/06/25 10:48:30;;;;;;;;;;;26.90;99.70;;;;;;5066209;28;20299;-71
2023/06/25 10:50:58;;;;;;;;;;;27.00;99.90;;;;;;5065848;28;20011;-71
2023/06/25 10:53:25;;;;;;;;;;;27.00;99.90;;;;;;5066734;28;20112;-71
2023/06/25 10:55:52;;;;;;;;;;;27.00;99.90;;;;;;5065852;28;19992;-72
2023/06/25 10:58:20;;;;;;;;;;;27.10;99.90;;;;;;5066393;28;19967;-71
2023/06/25 11:00:52;;;;;;;;;;;27.20;99.90;;;;;;5065539;28;19995;-71
2023/06/25 11:03:19;;;;;;;;;;;27.40;99.90;;;;;;5065896;28;19921;-71
2023/06/25 11:05:46;;;;;;;;;;;27.50;99.90;;;;;;5065692;28;19953;-71
2023/06/25 11:08:14;;;;;;;;;;;27.60;99.30;;;;;;5066167;28;19951;-71
2023/06/25 11:10:41;;;;;;;;;;;27.80;98.90;;;;;;5065364;28;20176;-68
2023/06/25 11:13:09;;;;;;;;;;;28.00;98.70;;;;;;5065533;28;20102;-71
2023/06/25 11:15:36;;;;;;;;;;;28.00;98.50;;;;;;5065347;28;19944;-71
2023/06/25 11:18:03;;;;;;;;;;;27.90;98.70;;;;;;5065590;28;20276;-71
2023/06/25 11:20:31;;;;;;;;;;;27.90;99.40;;;;;;5064877;28;20220;-70
2023/06/25 11:22:58;;;;;;;;;;;28.00;98.10;;;;;;5065736;28;19927;-71
2023/06/25 11:25:26;;;;;;;;;;;28.10;98.80;;;;;;5065359;28;19952;-70
2023/06/25 11:28:00;;;;;;;;;;;28.30;98.40;;;;;;5065696;28;19996;-70
2023/06/25 11:30:27;;;;;;;;;;;28.40;98.30;;;;;;5064830;28;19943;-70
2023/06/25 11:32:55;;;;;;;;;;;28.40;97.80;;;;;;5065329;28;19921;-71
2023/06/25 11:35:21;;;;;;;;;;;28.40;97.10;;;;;;5081340;22;19940;-69
2023/06/25 12:17:34;;;;;;;;;;;30.50;92.40;;;;;;5104368;28;19915;-68
2023/06/25 12:20:00;;;;;;;;;;;30.40;91.80;;;;;;5112956;28;19931;-68
2023/06/25 12:22:27;;;;;;;;;;;30.40;92.00;;;;;;5125791;27;19955;-68
2023/06/25 12:24:53;;;;;;;;;;;30.40;90.70;;;;;;5135511;27;20246;-68
2023/06/25 12:27:20;;;;;;;;;;;30.40;91.40;;;;;;5116564;28;19931;-68
2023/06/25 12:29:47;;;;;;;;;;;30.70;90.90;;;;;;5125009;28;20257;-68
2023/06/25 12:32:13;;;;;;;;;;;30.80;90.00;;;;;;5124549;28;19983;-68
2023/06/25 12:34:41;;;;;;;;;;;31.00;89.20;;;;;;5125074;28;19995;-69
2023/06/25 12:37:08;;;;;;;;;;;31.10;87.80;;;;;;5122341;27;20084;-68
2023/06/25 12:39:34;;;;;;;;;;;31.10;87.70;;;;;;5131260;27;19992;-68
2023/06/25 12:42:01;;;;;;;;;;;31.30;88.30;;;;;;5124208;28;19979;-68
2023/06/25 12:44:28;;;;;;;;;;;31.30;87.20;;;;;;5124981;28;19983;-68
2023/06/25 12:46:54;;;;;;;;;;;31.40;86.60;;;;;;5115593;28;19952;-68
2023/06/25 12:49:21;;;;;;;;;;;31.60;85.70;;;;;;5111178;28;19928;-68
2023/06/25 12:51:49;;;;;;;;;;;31.70;85.90;;;;;;5115577;28;19990;-68
2023/06/25 12:54:15;;;;;;;;;;;31.40;85.60;;;;;;5133251;27;19990;-68
2023/06/25 12:56:42;;;;;;;;;;;31.10;85.00;;;;;;5113038;28;20162;-68
2023/06/25 12:59:09;;;;;;;;;;;30.90;85.10;;;;;;5101744;28;19987;-68
2023/06/25 13:01:35;;;;;;;;;;;30.90;84.50;;;;;;5103633;28;19920;-68
2023/06/25 13:04:03;;;;;;;;;;;30.90;84.30;;;;;;5122146;28;19955;-68
2023/06/25 13:06:29;;;;;;;;;;;31.10;85.60;;;;;;5128549;27;19927;-68
2023/06/25 13:08:57;;;;;;;;;;;31.30;84.50;;;;;;5135418;27;20253;-67
2023/06/25 13:11:24;;;;;;;;;;;31.60;83.70;;;;;;5144309;27;19982;-68
2023/06/25 13:13:52;;;;;;;;;;;31.90;81.40;;;;;;5143511;27;20100;-68
2023/06/25 13:16:18;;;;;;;;;;;32.10;79.80;;;;;;5144849;27;19991;-69
2023/06/25 13:18:45;;;;;;;;;;;32.30;80.60;;;;;;5144652;27;20262;-68
2023/06/25 13:21:12;;;;;;;;;;;32.60;80.80;;;;;;5141579;27;19986;-68
2023/06/25 13:23:38;;;;;;;;;;;32.80;79.00;;;;;;5132680;27;19966;-68
2023/06/25 13:26:06;;;;;;;;;;;32.80;78.80;;;;;;5123776;28;19973;-68
2023/06/25 13:28:33;;;;;;;;;;;32.80;79.80;;;;;;5103829;28;19983;-68
2023/06/25 13:30:59;;;;;;;;;;;33.00;79.70;;;;;;5103156;28;19971;-67
2023/06/25 13:33:26;;;;;;;;;;;33.10;77.00;;;;;;5103447;28;19955;-68
2023/06/25 13:35:53;;;;;;;;;;;32.90;76.90;;;;;;5103183;28;19984;-68
2023/06/25 13:38:19;;;;;;;;;;;32.60;79.00;;;;;;5121501;27;19999;-68
2023/06/25 13:40:46;;;;;;;;;;;32.60;78.20;;;;;;5123415;28;19919;-68
2023/06/25 13:43:14;;;;;;;;;;;32.60;80.00;;;;;;5114635;28;19920;-68
2023/06/25 13:45:41;;;;;;;;;;;32.60;81.90;;;;;;5103507;28;20122;-68
2023/06/25 13:48:07;;;;;;;;;;;32.70;80.30;;;;;;5103134;28;19920;-69
2023/06/25 13:50:34;;;;;;;;;;;32.60;78.70;;;;;;5115281;28;19951;-68
2023/06/25 13:53:01;;;;;;;;;;;32.50;79.30;;;;;;5130717;28;20110;-68
2023/06/25 13:55:28;;;;;;;;;;;32.40;81.70;;;;;;5143930;28;19983;-68
2023/06/25 13:57:55;;;;;;;;;;;32.50;83.20;;;;;;5144224;28;19925;-67
2023/06/25 14:00:23;;;;;;;;;;;32.60;80.40;;;;;;5143852;28;19954;-67
2023/06/25 14:02:50;;;;;;;;;;;32.80;79.60;;;;;;5136349;28;19920;-67
2023/06/25 14:05:16;;;;;;;;;;;33.00;78.50;;;;;;5123510;28;19979;-67
2023/06/25 14:07:43;;;;;;;;;;;33.30;77.10;;;;;;5131902;28;20110;-67
2023/06/25 14:10:10;;;;;;;;;;;33.50;76.00;;;;;;5142268;28;19979;-67
2023/06/25 14:12:37;;;;;;;;;;;33.50;76.70;;;;;;5144119;28;19990;-67
2023/06/25 14:15:04;;;;;;;;;;;33.60;77.00;;;;;;5142459;28;19927;-67
2023/06/25 14:17:32;;;;;;;;;;;33.70;73.70;;;;;;5144348;28;19919;-67
2023/06/25 14:20:00;;;;;;;;;;;33.50;73.90;;;;;;5144495;27;20503;-68
2023/06/25 14:22:26;;;;;;;;;;;33.40;73.00;;;;;;5139108;27;19983;-67
2023/06/25 14:24:53;;;;;;;;;;;33.60;74.70;;;;;;5144106;27;19986;-68
2023/06/25 14:27:19;;;;;;;;;;;33.80;73.40;;;;;;5148112;27;19994;-67
2023/06/25 14:29:46;;;;;;;;;;;34.00;70.70;;;;;;5145951;27;19986;-67
2023/06/25 14:32:13;;;;;;;;;;;34.10;71.20;;;;;;5126904;28;19955;-68
2023/06/25 14:34:41;;;;;;;;;;;34.00;71.90;;;;;;5123024;28;20148;-67
2023/06/25 14:37:08;;;;;;;;;;;33.90;71.30;;;;;;5122662;27;20222;-68
2023/06/25 14:39:35;;;;;;;;;;;33.80;71.40;;;;;;5141735;27;19983;-67
2023/06/25 14:42:01;;;;;;;;;;;33.70;72.10;;;;;;5147189;27;20133;-67
2023/06/25 14:44:28;;;;;;;;;;;33.70;72.90;;;;;;5145091;27;19927;-68
2023/06/25 14:46:55;;;;;;;;;;;33.80;70.30;;;;;;5127197;28;19994;-67
2023/06/25 14:49:21;;;;;;;;;;;34.00;69.50;;;;;;5117926;28;20160;-67
2023/06/25 14:51:51;;;;;;;;;;;34.10;67.80;;;;;;5122344;28;19951;-68
2023/06/25 14:54:18;;;;;;;;;;;34.30;69.30;;;;;;5134813;27;19935;-67
2023/06/25 14:56:45;;;;;;;;;;;34.40;68.80;;;;;;5106337;28;20211;-67
2023/06/25 14:59:11;;;;;;;;;;;34.50;66.50;;;;;;5106290;28;19952;-67
2023/06/25 15:01:38;;;;;;;;;;;34.50;68.20;;;;;;5105963;28;19962;-67
2023/06/25 15:04:05;;;;;;;;;;;34.60;67.20;;;;;;5124775;28;19955;-68
2023/06/25 15:06:31;;;;;;;;;;;34.50;67.90;;;;;;5132054;27;19926;-68
2023/06/25 15:08:59;;;;;;;;;;;34.30;69.50;;;;;;5129023;27;19983;-68
2023/06/25 15:11:26;;;;;;;;;;;34.20;67.30;;;;;;5109591;28;19982;-68
2023/06/25 15:13:54;;;;;;;;;;;34.00;68.20;;;;;;5118201;28;19981;-68
2023/06/25 15:16:20;;;;;;;;;;;34.00;68.70;;;;;;5114958;28;19995;-67
2023/06/25 15:18:47;;;;;;;;;;;34.00;68.20;;;;;;5113317;28;19979;-67
2023/06/25 15:21:14;;;;;;;;;;;33.80;69.10;;;;;;5125098;28;19927;-67
2023/06/25 15:23:41;;;;;;;;;;;33.90;69.00;;;;;;5135002;27;19954;-67
2023/06/25 15:26:09;;;;;;;;;;;33.90;67.80;;;;;;5126016;28;20275;-67
2023/06/25 15:28:36;;;;;;;;;;;33.80;67.50;;;;;;5126426;28;19926;-67
2023/06/25 15:31:02;;;;;;;;;;;33.80;69.50;;;;;;5125708;28;19991;-68
2023/06/25 15:33:30;;;;;;;;;;;33.70;68.80;;;;;;5118716;28;19958;-69
2023/06/25 15:35:57;;;;;;;;;;;33.80;68.80;;;;;;5118773;27;19958;-69
2023/06/25 15:38:23;;;;;;;;;;;34.00;68.20;;;;;;5124506;27;19996;-70
2023/06/25 15:40:50;;;;;;;;;;;34.00;67.20;;;;;;5105702;28;20015;-69
2023/06/25 15:43:18;;;;;;;;;;;33.80;67.10;;;;;;5120197;28;19926;-69
2023/06/25 15:45:44;;;;;;;;;;;33.80;67.90;;;;;;5126170;28;19982;-69
2023/06/25 15:48:14;;;;;;;;;;;33.90;67.70;;;;;;5117795;28;19987;-70
2023/06/25 15:50:41;;;;;;;;;;;33.80;68.20;;;;;;5120127;28;19927;-69
2023/06/25 16:48:29;;;;;;;;;;;33.60;66.80;;;;;;5120601;28;19965;-67
2023/06/25 16:50:57;;;;;;;;;;;33.50;66.20;;;;;;5120021;27;19928;-67
2023/06/25 16:53:33;;;;;;;;;;;33.40;68.20;;;;;;5126983;27;19926;-69
2023/06/25 16:55:59;;;;;;;;;;;33.50;67.50;;;;;;5113757;28;19920;-67
2023/06/25 16:58:26;;;;;;;;;;;33.50;68.60;;;;;;5106004;28;19928;-67
2023/06/25 21:35:46;;;;;;;;;;;23.60;94.00;;;;;;5109974;28;20263;-68
2023/06/25 21:38:13;;;;;;;;;;;23.50;94.00;;;;;;5129740;27;19999;-70
2023/06/25 21:40:46;;;;;;;;;;;23.40;93.90;;;;;;5127301;27;19920;-68
2023/06/25 22:56:51;;;;;;;;;;;21.60;97.30;;;;;;5113265;28;20145;-68
2023/06/25 22:59:17;;;;;;;;;;;21.60;97.60;;;;;;5126431;28;19920;-68
2023/06/25 23:01:44;;;;;;;;;;;21.40;97.60;;;;;;5125932;28;19926;-69
2023/06/25 23:04:10;;;;;;;;;;;21.30;97.80;;;;;;5126491;28;19987;-68
2023/06/25 23:06:37;;;;;;;;;;;21.30;98.10;;;;;;5130051;27;19951;-68
2023/06/25 23:09:05;;;;;;;;;;;21.30;98.30;;;;;;5131891;27;19959;-68
2023/06/25 23:11:31;;;;;;;;;;;21.30;98.40;;;;;;5125827;28;19951;-67
2023/06/25 23:13:59;;;;;;;;;;;21.20;98.60;;;;;;5126413;28;19962;-68
2023/06/25 23:16:27;;;;;;;;;;;21.20;98.70;;;;;;5125928;28;19920;-68